sensor_id;sensor_type;location;lat;lon;timestamp;P1;durP1;ratioP1;P2;durP2;ratioP2
10059;SDS011;5069;49.306;8.636;2024-02-04T00:01:30;3.00;;;2.70;;
10059;SDS011;5069;49.306;8.636;2024-02-04T00:04:33;4.63;;;3.27;;
10059;SDS011;5069;49.306;8.636;2024-02-04T00:07:36;5.83;;;3.37;;
10059;SDS011;5069;49.306;8.636;2024-02-04T00:10:37;4.80;;;3.37;;
10059;SDS011;5069;49.306;8.636;2024-02-04T00:13:39;4.07;;;3.17;;
10059;SDS011;5069;49.306;8.636;2024-02-04T00:16:40;4.77;;;3.50;;
10059;SDS011;5069;49.306;8.636;2024-02-04T00:19:42;4.23;;;3.67;;
10059;SDS011;5069;49.306;8.636;2024-02-04T00:22:43;4.43;;;3.60;;
10059;SDS011;5069;49.306;8.636;2024-02-04T00:25:45;3.93;;;3.53;;
10059;SDS011;5069;49.306;8.636;2024-02-04T00:28:46;4.53;;;3.43;;
10059;SDS011;5069;49.306;8.636;2024-02-04T00:31:48;6.27;;;3.70;;
10059;SDS011;5069;49.306;8.636;2024-02-04T00:34:49;4.10;;;3.70;;
10059;SDS011;5069;49.306;8.636;2024-02-04T00:37:51;4.50;;;3.90;;
10059;SDS011;5069;49.306;8.636;2024-02-04T00:40:53;4.30;;;3.43;;
10059;SDS011;5069;49.306;8.636;2024-02-04T00:43:55;4.50;;;3.57;;
10059;SDS011;5069;49.306;8.636;2024-02-04T00:46:57;4.53;;;3.70;;
10059;SDS011;5069;49.306;8.636;2024-02-04T00:49:58;5.47;;;3.47;;
10059;SDS011;5069;49.306;8.636;2024-02-04T00:53:00;4.70;;;3.83;;
10059;SDS011;5069;49.306;8.636;2024-02-04T00:56:04;4.90;;;3.93;;
10059;SDS011;5069;49.306;8.636;2024-02-04T00:59:06;4.50;;;3.83;;
10059;SDS011;5069;49.306;8.636;2024-02-04T01:02:08;4.17;;;3.77;;
10059;SDS011;5069;49.306;8.636;2024-02-04T01:05:09;4.50;;;3.80;;
10059;SDS011;5069;49.306;8.636;2024-02-04T01:08:11;5.17;;;4.00;;
10059;SDS011;5069;49.306;8.636;2024-02-04T01:11:13;4.83;;;4.13;;
10059;SDS011;5069;49.306;8.636;2024-02-04T01:14:14;6.07;;;4.20;;
10059;SDS011;5069;49.306;8.636;2024-02-04T01:17:16;5.37;;;4.17;;
10059;SDS011;5069;49.306;8.636;2024-02-04T01:20:17;6.63;;;4.50;;
10059;SDS011;5069;49.306;8.636;2024-02-04T01:23:19;6.33;;;4.50;;
10059;SDS011;5069;49.306;8.636;2024-02-04T01:26:21;6.37;;;4.20;;
10059;SDS011;5069;49.306;8.636;2024-02-04T01:29:24;4.53;;;4.13;;
10059;SDS011;5069;49.306;8.636;2024-02-04T01:32:26;6.87;;;4.80;;
10059;SDS011;5069;49.306;8.636;2024-02-04T01:35:27;6.13;;;4.57;;
10059;SDS011;5069;49.306;8.636;2024-02-04T01:38:29;7.90;;;4.03;;
10059;SDS011;5069;49.306;8.636;2024-02-04T01:41:30;4.70;;;4.20;;
10059;SDS011;5069;49.306;8.636;2024-02-04T01:44:32;6.67;;;4.73;;
10059;SDS011;5069;49.306;8.636;2024-02-04T01:47:33;5.33;;;4.57;;
10059;SDS011;5069;49.306;8.636;2024-02-04T01:50:35;6.27;;;4.20;;
10059;SDS011;5069;49.306;8.636;2024-02-04T01:53:36;6.23;;;5.13;;
10059;SDS011;5069;49.306;8.636;2024-02-04T01:56:41;5.77;;;4.47;;
10059;SDS011;5069;49.306;8.636;2024-02-04T01:59:43;4.43;;;4.03;;
10059;SDS011;5069;49.306;8.636;2024-02-04T02:02:45;5.63;;;4.60;;
10059;SDS011;5069;49.306;8.636;2024-02-04T02:05:47;5.37;;;4.30;;
10059;SDS011;5069;49.306;8.636;2024-02-04T02:08:50;4.83;;;4.20;;
10059;SDS011;5069;49.306;8.636;2024-02-04T02:11:54;5.70;;;4.33;;
10059;SDS011;5069;49.306;8.636;2024-02-04T02:15:07;9.97;;;4.70;;
10059;SDS011;5069;49.306;8.636;2024-02-04T02:18:23;4.80;;;4.20;;
10059;SDS011;5069;49.306;8.636;2024-02-04T02:24:34;4.80;;;4.30;;
10059;SDS011;5069;49.306;8.636;2024-02-04T02:27:55;5.53;;;4.07;;
10059;SDS011;5069;49.306;8.636;2024-02-04T02:30:56;5.10;;;3.63;;
10059;SDS011;5069;49.306;8.636;2024-02-04T02:33:58;4.67;;;4.17;;
10059;SDS011;5069;49.306;8.636;2024-02-04T02:40:12;6.67;;;4.17;;
10059;SDS011;5069;49.306;8.636;2024-02-04T02:43:20;4.73;;;3.90;;
10059;SDS011;5069;49.306;8.636;2024-02-04T02:46:23;4.63;;;4.17;;
10059;SDS011;5069;49.306;8.636;2024-02-04T02:49:25;4.07;;;3.63;;
10059;SDS011;5069;49.306;8.636;2024-02-04T02:52:27;4.23;;;3.80;;
10059;SDS011;5069;49.306;8.636;2024-02-04T02:55:28;4.87;;;4.10;;
10059;SDS011;5069;49.306;8.636;2024-02-04T02:58:30;4.63;;;3.57;;
10059;SDS011;5069;49.306;8.636;2024-02-04T03:01:32;4.93;;;3.60;;
10059;SDS011;5069;49.306;8.636;2024-02-04T03:04:34;4.00;;;3.60;;
10059;SDS011;5069;49.306;8.636;2024-02-04T03:07:35;6.23;;;3.77;;
10059;SDS011;5069;49.306;8.636;2024-02-04T03:10:37;5.07;;;3.63;;
10059;SDS011;5069;49.306;8.636;2024-02-04T03:13:38;4.20;;;3.57;;
10059;SDS011;5069;49.306;8.636;2024-02-04T03:16:42;4.03;;;3.60;;
10059;SDS011;5069;49.306;8.636;2024-02-04T03:19:45;4.93;;;3.57;;
10059;SDS011;5069;49.306;8.636;2024-02-04T03:22:48;4.73;;;3.80;;
10059;SDS011;5069;49.306;8.636;2024-02-04T03:25:51;4.27;;;3.33;;
10059;SDS011;5069;49.306;8.636;2024-02-04T03:28:53;4.23;;;3.40;;
10059;SDS011;5069;49.306;8.636;2024-02-04T03:31:55;3.37;;;3.07;;
10059;SDS011;5069;49.306;8.636;2024-02-04T03:34:57;3.50;;;3.20;;
10059;SDS011;5069;49.306;8.636;2024-02-04T03:37:59;4.10;;;3.13;;
10059;SDS011;5069;49.306;8.636;2024-02-04T03:41:00;3.40;;;3.10;;
10059;SDS011;5069;49.306;8.636;2024-02-04T03:44:02;3.20;;;2.90;;
10059;SDS011;5069;49.306;8.636;2024-02-04T03:47:03;4.30;;;3.13;;
10059;SDS011;5069;49.306;8.636;2024-02-04T03:50:05;3.80;;;2.83;;
10059;SDS011;5069;49.306;8.636;2024-02-04T03:53:07;3.53;;;2.93;;
10059;SDS011;5069;49.306;8.636;2024-02-04T03:56:09;3.73;;;2.53;;
10059;SDS011;5069;49.306;8.636;2024-02-04T03:59:11;3.80;;;2.67;;
10059;SDS011;5069;49.306;8.636;2024-02-04T04:02:13;3.77;;;2.63;;
10059;SDS011;5069;49.306;8.636;2024-02-04T04:05:14;4.20;;;2.53;;
10059;SDS011;5069;49.306;8.636;2024-02-04T04:08:16;2.30;;;2.10;;
10059;SDS011;5069;49.306;8.636;2024-02-04T04:11:19;2.70;;;2.00;;
10059;SDS011;5069;49.306;8.636;2024-02-04T04:14:20;3.20;;;1.67;;
10059;SDS011;5069;49.306;8.636;2024-02-04T04:17:22;2.30;;;1.50;;
10059;SDS011;5069;49.306;8.636;2024-02-04T04:20:24;1.97;;;1.40;;
10059;SDS011;5069;49.306;8.636;2024-02-04T04:23:25;1.50;;;1.40;;
10059;SDS011;5069;49.306;8.636;2024-02-04T04:26:27;1.60;;;1.50;;
10059;SDS011;5069;49.306;8.636;2024-02-04T04:29:28;2.73;;;1.50;;
10059;SDS011;5069;49.306;8.636;2024-02-04T04:32:30;1.40;;;1.30;;
10059;SDS011;5069;49.306;8.636;2024-02-04T04:35:32;2.60;;;1.40;;
10059;SDS011;5069;49.306;8.636;2024-02-04T04:38:33;2.87;;;1.47;;
10059;SDS011;5069;49.306;8.636;2024-02-04T04:41:35;1.60;;;1.50;;
10059;SDS011;5069;49.306;8.636;2024-02-04T04:44:37;2.10;;;1.70;;
10059;SDS011;5069;49.306;8.636;2024-02-04T04:47:38;2.77;;;1.63;;
10059;SDS011;5069;49.306;8.636;2024-02-04T04:50:40;1.90;;;1.57;;
10059;SDS011;5069;49.306;8.636;2024-02-04T04:53:42;1.80;;;1.70;;
10059;SDS011;5069;49.306;8.636;2024-02-04T04:56:43;2.43;;;1.60;;
10059;SDS011;5069;49.306;8.636;2024-02-04T04:59:45;1.63;;;1.40;;
10059;SDS011;5069;49.306;8.636;2024-02-04T05:02:46;3.37;;;1.60;;
10059;SDS011;5069;49.306;8.636;2024-02-04T05:05:49;2.10;;;1.73;;
10059;SDS011;5069;49.306;8.636;2024-02-04T05:08:50;1.50;;;1.40;;
10059;SDS011;5069;49.306;8.636;2024-02-04T05:11:52;1.57;;;1.47;;
10059;SDS011;5069;49.306;8.636;2024-02-04T05:14:53;1.90;;;1.70;;
10059;SDS011;5069;49.306;8.636;2024-02-04T05:17:55;1.50;;;1.40;;
10059;SDS011;5069;49.306;8.636;2024-02-04T05:20:57;2.17;;;1.60;;
10059;SDS011;5069;49.306;8.636;2024-02-04T05:23:58;2.97;;;1.47;;
10059;SDS011;5069;49.306;8.636;2024-02-04T05:26:59;2.53;;;1.20;;
10059;SDS011;5069;49.306;8.636;2024-02-04T05:30:01;2.63;;;1.30;;
10059;SDS011;5069;49.306;8.636;2024-02-04T05:33:04;1.90;;;1.33;;
10059;SDS011;5069;49.306;8.636;2024-02-04T05:36:06;2.67;;;1.50;;
10059;SDS011;5069;49.306;8.636;2024-02-04T05:39:11;2.23;;;1.50;;
10059;SDS011;5069;49.306;8.636;2024-02-04T05:42:14;1.53;;;1.33;;
10059;SDS011;5069;49.306;8.636;2024-02-04T05:45:16;1.40;;;1.30;;
10059;SDS011;5069;49.306;8.636;2024-02-04T05:48:17;1.70;;;1.30;;
10059;SDS011;5069;49.306;8.636;2024-02-04T05:51:19;1.83;;;1.40;;
10059;SDS011;5069;49.306;8.636;2024-02-04T05:54:21;1.67;;;1.57;;
10059;SDS011;5069;49.306;8.636;2024-02-04T05:57:22;2.20;;;1.60;;
10059;SDS011;5069;49.306;8.636;2024-02-04T06:00:23;2.07;;;1.80;;
10059;SDS011;5069;49.306;8.636;2024-02-04T06:03:25;2.27;;;2.07;;
10059;SDS011;5069;49.306;8.636;2024-02-04T06:06:31;2.57;;;2.37;;
10059;SDS011;5069;49.306;8.636;2024-02-04T06:09:33;2.73;;;2.00;;
10059;SDS011;5069;49.306;8.636;2024-02-04T06:12:34;2.10;;;1.90;;
10059;SDS011;5069;49.306;8.636;2024-02-04T06:15:36;2.30;;;2.10;;
10059;SDS011;5069;49.306;8.636;2024-02-04T06:18:38;2.53;;;2.20;;
10059;SDS011;5069;49.306;8.636;2024-02-04T06:21:40;1.90;;;1.70;;
10059;SDS011;5069;49.306;8.636;2024-02-04T06:24:42;1.67;;;1.57;;
10059;SDS011;5069;49.306;8.636;2024-02-04T06:27:44;2.60;;;1.60;;
10059;SDS011;5069;49.306;8.636;2024-02-04T06:30:45;1.80;;;1.70;;
10059;SDS011;5069;49.306;8.636;2024-02-04T06:33:47;2.00;;;1.80;;
10059;SDS011;5069;49.306;8.636;2024-02-04T06:36:48;1.80;;;1.50;;
10059;SDS011;5069;49.306;8.636;2024-02-04T06:39:50;2.33;;;1.73;;
10059;SDS011;5069;49.306;8.636;2024-02-04T06:42:53;2.43;;;1.70;;
10059;SDS011;5069;49.306;8.636;2024-02-04T06:45:54;2.43;;;1.70;;
10059;SDS011;5069;49.306;8.636;2024-02-04T06:48:56;2.30;;;1.57;;
10059;SDS011;5069;49.306;8.636;2024-02-04T06:51:58;2.57;;;1.97;;
10059;SDS011;5069;49.306;8.636;2024-02-04T06:54:59;2.27;;;1.70;;
10059;SDS011;5069;49.306;8.636;2024-02-04T06:58:01;2.70;;;2.10;;
10059;SDS011;5069;49.306;8.636;2024-02-04T07:01:02;2.47;;;2.00;;
10059;SDS011;5069;49.306;8.636;2024-02-04T07:04:04;2.60;;;2.03;;
10059;SDS011;5069;49.306;8.636;2024-02-04T07:07:06;2.37;;;2.17;;
10059;SDS011;5069;49.306;8.636;2024-02-04T07:10:08;3.57;;;2.20;;
10059;SDS011;5069;49.306;8.636;2024-02-04T07:13:09;2.20;;;2.00;;
10059;SDS011;5069;49.306;8.636;2024-02-04T07:16:13;2.67;;;2.10;;
10059;SDS011;5069;49.306;8.636;2024-02-04T07:19:14;2.30;;;1.90;;
10059;SDS011;5069;49.306;8.636;2024-02-04T07:22:16;3.10;;;2.20;;
10059;SDS011;5069;49.306;8.636;2024-02-04T07:25:17;3.30;;;2.30;;
10059;SDS011;5069;49.306;8.636;2024-02-04T07:28:19;2.30;;;2.10;;
10059;SDS011;5069;49.306;8.636;2024-02-04T07:31:20;2.40;;;2.03;;
10059;SDS011;5069;49.306;8.636;2024-02-04T07:34:23;2.90;;;1.97;;
10059;SDS011;5069;49.306;8.636;2024-02-04T07:37:24;2.70;;;2.17;;
10059;SDS011;5069;49.306;8.636;2024-02-04T07:40:26;3.37;;;2.30;;
10059;SDS011;5069;49.306;8.636;2024-02-04T07:43:28;3.53;;;2.50;;
10059;SDS011;5069;49.306;8.636;2024-02-04T07:46:30;2.57;;;2.00;;
10059;SDS011;5069;49.306;8.636;2024-02-04T07:49:31;3.90;;;2.50;;
10059;SDS011;5069;49.306;8.636;2024-02-04T07:52:33;3.43;;;2.50;;
10059;SDS011;5069;49.306;8.636;2024-02-04T07:55:34;2.53;;;2.33;;
10059;SDS011;5069;49.306;8.636;2024-02-04T07:58:36;3.07;;;2.43;;
10059;SDS011;5069;49.306;8.636;2024-02-04T08:01:37;6.57;;;2.60;;
10059;SDS011;5069;49.306;8.636;2024-02-04T08:04:40;3.63;;;2.37;;
10059;SDS011;5069;49.306;8.636;2024-02-04T08:07:42;2.87;;;2.20;;
10059;SDS011;5069;49.306;8.636;2024-02-04T08:10:44;2.17;;;1.97;;
10059;SDS011;5069;49.306;8.636;2024-02-04T08:13:46;3.57;;;2.10;;
10059;SDS011;5069;49.306;8.636;2024-02-04T08:16:47;1.90;;;1.80;;
10059;SDS011;5069;49.306;8.636;2024-02-04T08:19:49;1.90;;;1.73;;
10059;SDS011;5069;49.306;8.636;2024-02-04T08:22:51;4.03;;;1.90;;
10059;SDS011;5069;49.306;8.636;2024-02-04T08:25:53;2.93;;;1.70;;
10059;SDS011;5069;49.306;8.636;2024-02-04T08:28:55;2.53;;;2.07;;
10059;SDS011;5069;49.306;8.636;2024-02-04T08:31:56;2.50;;;1.93;;
10059;SDS011;5069;49.306;8.636;2024-02-04T08:34:58;1.83;;;1.60;;
10059;SDS011;5069;49.306;8.636;2024-02-04T08:37:59;1.70;;;1.60;;
10059;SDS011;5069;49.306;8.636;2024-02-04T08:41:02;2.13;;;1.60;;
10059;SDS011;5069;49.306;8.636;2024-02-04T08:44:04;3.00;;;1.70;;
10059;SDS011;5069;49.306;8.636;2024-02-04T08:47:05;1.60;;;1.50;;
10059;SDS011;5069;49.306;8.636;2024-02-04T08:50:11;1.83;;;1.40;;
10059;SDS011;5069;49.306;8.636;2024-02-04T08:53:13;2.13;;;1.93;;
10059;SDS011;5069;49.306;8.636;2024-02-04T08:56:15;1.70;;;1.60;;
10059;SDS011;5069;49.306;8.636;2024-02-04T08:59:16;2.07;;;1.60;;
10059;SDS011;5069;49.306;8.636;2024-02-04T09:02:18;2.53;;;1.43;;
10059;SDS011;5069;49.306;8.636;2024-02-04T09:05:19;2.00;;;1.80;;
10059;SDS011;5069;49.306;8.636;2024-02-04T09:08:21;1.90;;;1.63;;
10059;SDS011;5069;49.306;8.636;2024-02-04T09:11:23;1.50;;;1.40;;
10059;SDS011;5069;49.306;8.636;2024-02-04T09:14:25;1.67;;;1.40;;
10059;SDS011;5069;49.306;8.636;2024-02-04T09:17:27;3.20;;;1.50;;
10059;SDS011;5069;49.306;8.636;2024-02-04T09:20:29;1.50;;;1.30;;
10059;SDS011;5069;49.306;8.636;2024-02-04T09:23:30;1.53;;;1.43;;
10059;SDS011;5069;49.306;8.636;2024-02-04T09:26:32;1.80;;;1.57;;
10059;SDS011;5069;49.306;8.636;2024-02-04T09:29:33;1.33;;;1.20;;
10059;SDS011;5069;49.306;8.636;2024-02-04T09:32:35;2.07;;;1.23;;
10059;SDS011;5069;49.306;8.636;2024-02-04T09:35:37;1.90;;;1.70;;
10059;SDS011;5069;49.306;8.636;2024-02-04T09:38:38;1.87;;;1.23;;
10059;SDS011;5069;49.306;8.636;2024-02-04T09:41:40;2.33;;;1.20;;
10059;SDS011;5069;49.306;8.636;2024-02-04T09:44:42;2.43;;;1.20;;
10059;SDS011;5069;49.306;8.636;2024-02-04T09:47:44;1.43;;;1.33;;
10059;SDS011;5069;49.306;8.636;2024-02-04T09:50:46;1.60;;;1.27;;
10059;SDS011;5069;49.306;8.636;2024-02-04T09:53:53;2.07;;;1.30;;
10059;SDS011;5069;49.306;8.636;2024-02-04T09:56:55;1.47;;;1.20;;
10059;SDS011;5069;49.306;8.636;2024-02-04T09:59:57;3.40;;;1.23;;
10059;SDS011;5069;49.306;8.636;2024-02-04T10:02:58;1.50;;;0.90;;
10059;SDS011;5069;49.306;8.636;2024-02-04T10:06:02;1.20;;;1.10;;
10059;SDS011;5069;49.306;8.636;2024-02-04T10:09:04;1.83;;;1.10;;
10059;SDS011;5069;49.306;8.636;2024-02-04T10:12:05;1.33;;;1.10;;
10059;SDS011;5069;49.306;8.636;2024-02-04T10:15:10;1.40;;;1.10;;
10059;SDS011;5069;49.306;8.636;2024-02-04T10:18:12;1.50;;;1.00;;
10059;SDS011;5069;49.306;8.636;2024-02-04T10:21:23;0.80;;;0.80;;
10059;SDS011;5069;49.306;8.636;2024-02-04T10:24:25;1.00;;;0.90;;
10059;SDS011;5069;49.306;8.636;2024-02-04T10:27:27;1.50;;;0.90;;
10059;SDS011;5069;49.306;8.636;2024-02-04T10:30:40;1.60;;;1.00;;
10059;SDS011;5069;49.306;8.636;2024-02-04T10:33:42;1.10;;;1.00;;
10059;SDS011;5069;49.306;8.636;2024-02-04T10:36:45;1.70;;;0.90;;
10059;SDS011;5069;49.306;8.636;2024-02-04T10:39:46;2.17;;;1.00;;
10059;SDS011;5069;49.306;8.636;2024-02-04T10:42:48;1.50;;;0.90;;
10059;SDS011;5069;49.306;8.636;2024-02-04T10:45:52;3.27;;;0.90;;
10059;SDS011;5069;49.306;8.636;2024-02-04T10:49:00;0.77;;;0.77;;
10059;SDS011;5069;49.306;8.636;2024-02-04T10:52:06;1.20;;;0.90;;
10059;SDS011;5069;49.306;8.636;2024-02-04T10:55:09;2.00;;;0.90;;
10059;SDS011;5069;49.306;8.636;2024-02-04T10:58:13;0.73;;;0.73;;
10059;SDS011;5069;49.306;8.636;2024-02-04T11:01:18;2.17;;;0.70;;
10059;SDS011;5069;49.306;8.636;2024-02-04T11:04:19;0.63;;;0.63;;
10059;SDS011;5069;49.306;8.636;2024-02-04T11:07:22;0.60;;;0.60;;
10059;SDS011;5069;49.306;8.636;2024-02-04T11:10:25;0.70;;;0.70;;
10059;SDS011;5069;49.306;8.636;2024-02-04T11:13:30;0.73;;;0.60;;
10059;SDS011;5069;49.306;8.636;2024-02-04T11:23:28;1.10;;;0.80;;
10059;SDS011;5069;49.306;8.636;2024-02-04T11:26:49;0.80;;;0.60;;
10059;SDS011;5069;49.306;8.636;2024-02-04T11:29:52;0.60;;;0.60;;
10059;SDS011;5069;49.306;8.636;2024-02-04T11:32:53;0.93;;;0.60;;
10059;SDS011;5069;49.306;8.636;2024-02-04T11:36:04;0.83;;;0.60;;
10059;SDS011;5069;49.306;8.636;2024-02-04T11:39:13;1.03;;;0.77;;
10059;SDS011;5069;49.306;8.636;2024-02-04T11:42:19;0.80;;;0.60;;
10059;SDS011;5069;49.306;8.636;2024-02-04T11:45:22;1.37;;;0.90;;
10059;SDS011;5069;49.306;8.636;2024-02-04T11:48:32;1.07;;;0.70;;
10059;SDS011;5069;49.306;8.636;2024-02-04T11:51:35;0.63;;;0.63;;
10059;SDS011;5069;49.306;8.636;2024-02-04T11:54:37;0.80;;;0.80;;
10059;SDS011;5069;49.306;8.636;2024-02-04T11:57:39;0.83;;;0.67;;
10059;SDS011;5069;49.306;8.636;2024-02-04T12:00:44;0.90;;;0.80;;
10059;SDS011;5069;49.306;8.636;2024-02-04T12:03:47;0.80;;;0.70;;
10059;SDS011;5069;49.306;8.636;2024-02-04T12:06:49;0.83;;;0.80;;
10059;SDS011;5069;49.306;8.636;2024-02-04T12:09:51;1.20;;;0.90;;
10059;SDS011;5069;49.306;8.636;2024-02-04T12:12:53;1.20;;;0.70;;
10059;SDS011;5069;49.306;8.636;2024-02-04T12:15:55;1.37;;;0.87;;
10059;SDS011;5069;49.306;8.636;2024-02-04T12:18:56;1.37;;;0.90;;
10059;SDS011;5069;49.306;8.636;2024-02-04T12:21:58;1.07;;;0.67;;
10059;SDS011;5069;49.306;8.636;2024-02-04T12:25:00;0.80;;;0.70;;
10059;SDS011;5069;49.306;8.636;2024-02-04T12:28:02;1.20;;;0.80;;
10059;SDS011;5069;49.306;8.636;2024-02-04T12:31:05;0.97;;;0.80;;
10059;SDS011;5069;49.306;8.636;2024-02-04T12:34:07;0.73;;;0.73;;
10059;SDS011;5069;49.306;8.636;2024-02-04T12:37:10;0.90;;;0.60;;
10059;SDS011;5069;49.306;8.636;2024-02-04T12:40:11;1.30;;;0.63;;
10059;SDS011;5069;49.306;8.636;2024-02-04T12:43:13;0.80;;;0.77;;
10059;SDS011;5069;49.306;8.636;2024-02-04T12:46:15;0.90;;;0.90;;
10059;SDS011;5069;49.306;8.636;2024-02-04T12:49:18;1.27;;;0.80;;
10059;SDS011;5069;49.306;8.636;2024-02-04T12:52:22;1.03;;;0.77;;
10059;SDS011;5069;49.306;8.636;2024-02-04T12:55:25;1.43;;;0.90;;
10059;SDS011;5069;49.306;8.636;2024-02-04T12:58:41;1.43;;;0.83;;
10059;SDS011;5069;49.306;8.636;2024-02-04T13:01:43;0.97;;;0.60;;
10059;SDS011;5069;49.306;8.636;2024-02-04T13:04:45;0.70;;;0.60;;
10059;SDS011;5069;49.306;8.636;2024-02-04T13:07:50;0.70;;;0.50;;
10059;SDS011;5069;49.306;8.636;2024-02-04T13:10:56;0.97;;;0.83;;
10059;SDS011;5069;49.306;8.636;2024-02-04T13:13:58;0.80;;;0.70;;
10059;SDS011;5069;49.306;8.636;2024-02-04T13:17:00;0.80;;;0.80;;
10059;SDS011;5069;49.306;8.636;2024-02-04T13:20:01;1.47;;;0.80;;
10059;SDS011;5069;49.306;8.636;2024-02-04T13:23:03;0.90;;;0.90;;
10059;SDS011;5069;49.306;8.636;2024-02-04T13:26:08;1.00;;;0.80;;
10059;SDS011;5069;49.306;8.636;2024-02-04T13:29:09;5.60;;;1.70;;
10059;SDS011;5069;49.306;8.636;2024-02-04T13:32:11;1.37;;;0.73;;
10059;SDS011;5069;49.306;8.636;2024-02-04T13:35:12;2.20;;;0.90;;
10059;SDS011;5069;49.306;8.636;2024-02-04T13:38:20;0.63;;;0.63;;
10059;SDS011;5069;49.306;8.636;2024-02-04T13:41:22;0.53;;;0.53;;
10059;SDS011;5069;49.306;8.636;2024-02-04T13:44:23;1.00;;;0.80;;
10059;SDS011;5069;49.306;8.636;2024-02-04T13:47:25;1.63;;;0.67;;
10059;SDS011;5069;49.306;8.636;2024-02-04T13:50:26;1.60;;;0.80;;
10059;SDS011;5069;49.306;8.636;2024-02-04T13:53:28;0.73;;;0.73;;
10059;SDS011;5069;49.306;8.636;2024-02-04T13:56:29;1.03;;;0.77;;
10059;SDS011;5069;49.306;8.636;2024-02-04T13:59:31;1.80;;;0.80;;
10059;SDS011;5069;49.306;8.636;2024-02-04T14:02:32;1.33;;;0.80;;
10059;SDS011;5069;49.306;8.636;2024-02-04T14:05:34;0.80;;;0.73;;
10059;SDS011;5069;49.306;8.636;2024-02-04T14:08:36;2.03;;;0.90;;
10059;SDS011;5069;49.306;8.636;2024-02-04T14:11:37;1.80;;;0.93;;
10059;SDS011;5069;49.306;8.636;2024-02-04T14:14:39;0.80;;;0.80;;
10059;SDS011;5069;49.306;8.636;2024-02-04T14:17:40;1.40;;;0.90;;
10059;SDS011;5069;49.306;8.636;2024-02-04T14:20:42;1.07;;;0.83;;
10059;SDS011;5069;49.306;8.636;2024-02-04T14:23:43;1.00;;;0.90;;
10059;SDS011;5069;49.306;8.636;2024-02-04T14:26:45;1.30;;;0.93;;
10059;SDS011;5069;49.306;8.636;2024-02-04T14:29:46;1.10;;;1.00;;
10059;SDS011;5069;49.306;8.636;2024-02-04T14:32:48;1.47;;;1.10;;
10059;SDS011;5069;49.306;8.636;2024-02-04T14:35:49;2.20;;;1.00;;
10059;SDS011;5069;49.306;8.636;2024-02-04T14:38:51;2.20;;;1.33;;
10059;SDS011;5069;49.306;8.636;2024-02-04T14:41:52;2.07;;;1.17;;
10059;SDS011;5069;49.306;8.636;2024-02-04T14:44:55;1.10;;;0.80;;
10059;SDS011;5069;49.306;8.636;2024-02-04T14:47:57;3.23;;;1.10;;
10059;SDS011;5069;49.306;8.636;2024-02-04T14:50:58;2.00;;;0.90;;
10059;SDS011;5069;49.306;8.636;2024-02-04T14:54:00;2.10;;;0.93;;
10059;SDS011;5069;49.306;8.636;2024-02-04T14:57:01;1.37;;;0.90;;
10059;SDS011;5069;49.306;8.636;2024-02-04T15:00:03;1.33;;;1.00;;
10059;SDS011;5069;49.306;8.636;2024-02-04T15:03:05;1.13;;;0.90;;
10059;SDS011;5069;49.306;8.636;2024-02-04T15:06:07;1.30;;;0.97;;
10059;SDS011;5069;49.306;8.636;2024-02-04T15:09:09;1.90;;;1.20;;
10059;SDS011;5069;49.306;8.636;2024-02-04T15:12:11;1.00;;;0.90;;
10059;SDS011;5069;49.306;8.636;2024-02-04T15:15:15;1.27;;;1.00;;
10059;SDS011;5069;49.306;8.636;2024-02-04T15:18:17;1.80;;;1.03;;
10059;SDS011;5069;49.306;8.636;2024-02-04T15:21:19;1.10;;;1.00;;
10059;SDS011;5069;49.306;8.636;2024-02-04T15:24:21;1.27;;;1.17;;
10059;SDS011;5069;49.306;8.636;2024-02-04T15:27:26;2.30;;;1.13;;
10059;SDS011;5069;49.306;8.636;2024-02-04T15:30:29;1.27;;;1.17;;
10059;SDS011;5069;49.306;8.636;2024-02-04T15:33:31;1.63;;;1.30;;
10059;SDS011;5069;49.306;8.636;2024-02-04T15:36:33;1.60;;;1.20;;
10059;SDS011;5069;49.306;8.636;2024-02-04T15:39:35;1.57;;;1.17;;
10059;SDS011;5069;49.306;8.636;2024-02-04T15:42:39;1.40;;;1.10;;
10059;SDS011;5069;49.306;8.636;2024-02-04T15:45:40;2.57;;;1.20;;
10059;SDS011;5069;49.306;8.636;2024-02-04T15:48:42;1.77;;;1.30;;
10059;SDS011;5069;49.306;8.636;2024-02-04T15:51:45;2.07;;;1.30;;
10059;SDS011;5069;49.306;8.636;2024-02-04T15:54:48;2.40;;;1.37;;
10059;SDS011;5069;49.306;8.636;2024-02-04T15:57:52;1.90;;;1.30;;
10059;SDS011;5069;49.306;8.636;2024-02-04T16:00:55;1.40;;;1.00;;
10059;SDS011;5069;49.306;8.636;2024-02-04T16:03:57;2.83;;;1.20;;
10059;SDS011;5069;49.306;8.636;2024-02-04T16:06:59;1.57;;;1.40;;
10059;SDS011;5069;49.306;8.636;2024-02-04T16:10:01;1.90;;;1.20;;
10059;SDS011;5069;49.306;8.636;2024-02-04T16:13:03;1.37;;;1.13;;
10059;SDS011;5069;49.306;8.636;2024-02-04T16:16:11;1.63;;;1.30;;
10059;SDS011;5069;49.306;8.636;2024-02-04T16:19:15;3.67;;;1.40;;
10059;SDS011;5069;49.306;8.636;2024-02-04T16:22:17;2.20;;;1.33;;
10059;SDS011;5069;49.306;8.636;2024-02-04T16:25:19;1.23;;;1.10;;
10059;SDS011;5069;49.306;8.636;2024-02-04T16:28:21;3.57;;;1.50;;
10059;SDS011;5069;49.306;8.636;2024-02-04T16:31:23;1.30;;;1.00;;
10059;SDS011;5069;49.306;8.636;2024-02-04T16:34:24;1.63;;;1.20;;
10059;SDS011;5069;49.306;8.636;2024-02-04T16:37:26;2.43;;;1.20;;
10059;SDS011;5069;49.306;8.636;2024-02-04T16:40:27;2.27;;;0.97;;
10059;SDS011;5069;49.306;8.636;2024-02-04T16:43:29;2.50;;;1.20;;
10059;SDS011;5069;49.306;8.636;2024-02-04T16:46:30;2.07;;;1.07;;
10059;SDS011;5069;49.306;8.636;2024-02-04T16:49:32;1.93;;;0.90;;
10059;SDS011;5069;49.306;8.636;2024-02-04T16:52:33;2.90;;;1.00;;
10059;SDS011;5069;49.306;8.636;2024-02-04T16:55:35;1.50;;;1.30;;
10059;SDS011;5069;49.306;8.636;2024-02-04T16:58:36;2.90;;;1.30;;
10059;SDS011;5069;49.306;8.636;2024-02-04T17:01:38;1.47;;;1.03;;
10059;SDS011;5069;49.306;8.636;2024-02-04T17:04:40;2.40;;;1.30;;
10059;SDS011;5069;49.306;8.636;2024-02-04T17:07:44;1.57;;;1.10;;
10059;SDS011;5069;49.306;8.636;2024-02-04T17:10:46;1.60;;;1.07;;
10059;SDS011;5069;49.306;8.636;2024-02-04T17:13:49;2.80;;;1.00;;
10059;SDS011;5069;49.306;8.636;2024-02-04T17:16:59;1.00;;;0.90;;
10059;SDS011;5069;49.306;8.636;2024-02-04T17:20:16;1.57;;;1.00;;
10059;SDS011;5069;49.306;8.636;2024-02-04T17:23:26;1.63;;;1.00;;
10059;SDS011;5069;49.306;8.636;2024-02-04T17:26:28;0.90;;;0.90;;
10059;SDS011;5069;49.306;8.636;2024-02-04T17:29:31;1.10;;;1.00;;
10059;SDS011;5069;49.306;8.636;2024-02-04T17:32:33;1.17;;;0.90;;
10059;SDS011;5069;49.306;8.636;2024-02-04T17:35:38;1.83;;;0.90;;
10059;SDS011;5069;49.306;8.636;2024-02-04T17:38:39;0.80;;;0.80;;
10059;SDS011;5069;49.306;8.636;2024-02-04T17:41:41;1.70;;;0.90;;
10059;SDS011;5069;49.306;8.636;2024-02-04T17:44:43;0.70;;;0.70;;
10059;SDS011;5069;49.306;8.636;2024-02-04T17:47:44;1.13;;;0.80;;
10059;SDS011;5069;49.306;8.636;2024-02-04T17:50:48;1.30;;;0.90;;
10059;SDS011;5069;49.306;8.636;2024-02-04T17:53:53;1.83;;;0.90;;
10059;SDS011;5069;49.306;8.636;2024-02-04T17:56:55;1.00;;;0.90;;
10059;SDS011;5069;49.306;8.636;2024-02-04T17:59:56;0.73;;;0.73;;
10059;SDS011;5069;49.306;8.636;2024-02-04T18:02:58;1.07;;;0.80;;
10059;SDS011;5069;49.306;8.636;2024-02-04T18:06:00;1.07;;;0.90;;
10059;SDS011;5069;49.306;8.636;2024-02-04T18:09:01;0.93;;;0.90;;
10059;SDS011;5069;49.306;8.636;2024-02-04T18:12:03;0.93;;;0.80;;
10059;SDS011;5069;49.306;8.636;2024-02-04T18:15:05;1.03;;;0.90;;
10059;SDS011;5069;49.306;8.636;2024-02-04T18:18:07;2.40;;;0.80;;
10059;SDS011;5069;49.306;8.636;2024-02-04T18:21:42;1.00;;;0.90;;
10059;SDS011;5069;49.306;8.636;2024-02-04T18:24:36;1.00;;;0.90;;
10059;SDS011;5069;49.306;8.636;2024-02-04T18:27:39;1.00;;;0.83;;
10059;SDS011;5069;49.306;8.636;2024-02-04T18:30:42;0.93;;;0.80;;
10059;SDS011;5069;49.306;8.636;2024-02-04T18:33:45;1.50;;;1.30;;
10059;SDS011;5069;49.306;8.636;2024-02-04T18:36:49;1.73;;;1.00;;
10059;SDS011;5069;49.306;8.636;2024-02-04T18:39:50;1.47;;;1.10;;
10059;SDS011;5069;49.306;8.636;2024-02-04T18:42:55;1.20;;;1.00;;
10059;SDS011;5069;49.306;8.636;2024-02-04T18:45:59;1.20;;;1.10;;
10059;SDS011;5069;49.306;8.636;2024-02-04T18:49:01;1.17;;;0.90;;